sensor_id;sensor_type;location;lat;lon;timestamp;pressure;altitude;pressure_sealevel;temperature;humidity
76766;BME280;65707;52.362;6.588;2023-08-21T00:00:57;102320.66;;;19.12;73.90
76766;BME280;65707;52.362;6.588;2023-08-21T00:03:23;102323.66;;;19.03;74.14
76766;BME280;65707;52.362;6.588;2023-08-21T00:05:50;102319.16;;;19.10;73.87
76766;BME280;65707;52.362;6.588;2023-08-21T00:08:16;102316.72;;;19.15;73.80
76766;BME280;65707;52.362;6.588;2023-08-21T00:10:44;102311.09;;;19.16;73.55
76766;BME280;65707;52.362;6.588;2023-08-21T00:13:11;102314.84;;;19.15;73.32
76766;BME280;65707;52.362;6.588;2023-08-21T00:15:38;102308.75;;;19.13;73.61
76766;BME280;65707;52.362;6.588;2023-08-21T00:18:05;102310.63;;;19.13;73.85
76766;BME280;65707;52.362;6.588;2023-08-21T00:20:31;102316.25;;;19.11;73.66
76766;BME280;65707;52.362;6.588;2023-08-21T00:22:58;102317.94;;;19.12;73.92
76766;BME280;65707;52.362;6.588;2023-08-21T00:25:24;102314.00;;;19.15;73.88
76766;BME280;65707;52.362;6.588;2023-08-21T00:27:52;102305.91;;;19.21;73.79
76766;BME280;65707;52.362;6.588;2023-08-21T00:30:19;102309.97;;;19.25;73.47
76766;BME280;65707;52.362;6.588;2023-08-21T00:32:45;102313.53;;;19.26;73.25
76766;BME280;65707;52.362;6.588;2023-08-21T00:35:12;102312.88;;;19.24;73.22
76766;BME280;65707;52.362;6.588;2023-08-21T00:37:39;102306.84;;;18.99;74.52
76766;BME280;65707;52.362;6.588;2023-08-21T00:40:06;102310.25;;;19.01;74.29
76766;BME280;65707;52.362;6.588;2023-08-21T00:42:33;102307.78;;;18.92;74.86
76766;BME280;65707;52.362;6.588;2023-08-21T00:45:01;102314.28;;;18.91;74.96
76766;BME280;65707;52.362;6.588;2023-08-21T00:47:28;102316.91;;;18.99;74.50
76766;BME280;65707;52.362;6.588;2023-08-21T00:49:55;102313.53;;;18.97;74.85
76766;BME280;65707;52.362;6.588;2023-08-21T00:52:22;102317.00;;;18.91;75.17
76766;BME280;65707;52.362;6.588;2023-08-21T00:54:50;102318.94;;;18.82;75.65
76766;BME280;65707;52.362;6.588;2023-08-21T00:57:16;102316.41;;;18.81;76.16
76766;BME280;65707;52.362;6.588;2023-08-21T00:59:43;102320.56;;;18.91;75.12
76766;BME280;65707;52.362;6.588;2023-08-21T01:02:12;102312.47;;;18.98;74.57
76766;BME280;65707;52.362;6.588;2023-08-21T01:04:38;102308.09;;;18.97;74.54
76766;BME280;65707;52.362;6.588;2023-08-21T01:07:05;102310.53;;;18.92;74.59
76766;BME280;65707;52.362;6.588;2023-08-21T01:09:39;102314.66;;;18.88;74.61
76766;BME280;65707;52.362;6.588;2023-08-21T01:12:15;102312.13;;;18.86;74.69
76766;BME280;65707;52.362;6.588;2023-08-21T01:14:51;102302.44;;;18.84;74.98
76766;BME280;65707;52.362;6.588;2023-08-21T01:17:23;102304.91;;;18.79;75.44
76766;BME280;65707;52.362;6.588;2023-08-21T01:19:50;102297.38;;;18.81;74.94
76766;BME280;65707;52.362;6.588;2023-08-21T01:22:18;102302.25;;;18.71;75.39
76766;BME280;65707;52.362;6.588;2023-08-21T01:24:46;102304.31;;;18.69;75.85
76766;BME280;65707;52.362;6.588;2023-08-21T01:27:13;102300.94;;;18.67;76.04
76766;BME280;65707;52.362;6.588;2023-08-21T01:29:40;102308.78;;;18.62;75.98
76766;BME280;65707;52.362;6.588;2023-08-21T01:32:09;102320.22;;;18.57;76.18
76766;BME280;65707;52.362;6.588;2023-08-21T01:34:38;102319.59;;;18.55;76.05
76766;BME280;65707;52.362;6.588;2023-08-21T01:37:06;102313.66;;;18.52;76.16
76766;BME280;65707;52.362;6.588;2023-08-21T01:39:33;102306.88;;;18.47;76.53
76766;BME280;65707;52.362;6.588;2023-08-21T01:42:01;102317.84;;;18.39;76.89
76766;BME280;65707;52.362;6.588;2023-08-21T01:44:28;102317.53;;;18.34;77.01
76766;BME280;65707;52.362;6.588;2023-08-21T01:46:54;102310.75;;;18.30;76.85
76766;BME280;65707;52.362;6.588;2023-08-21T01:49:21;102321.63;;;18.30;77.10
76766;BME280;65707;52.362;6.588;2023-08-21T01:51:48;102318.41;;;18.27;77.17
76766;BME280;65707;52.362;6.588;2023-08-21T01:54:14;102321.13;;;18.27;76.81
76766;BME280;65707;52.362;6.588;2023-08-21T01:56:41;102316.94;;;18.24;76.60
76766;BME280;65707;52.362;6.588;2023-08-21T01:59:09;102318.97;;;18.22;77.13
76766;BME280;65707;52.362;6.588;2023-08-21T02:01:35;102310.19;;;18.20;76.88
76766;BME280;65707;52.362;6.588;2023-08-21T02:04:02;102310.72;;;18.16;76.98
76766;BME280;65707;52.362;6.588;2023-08-21T02:06:29;102316.88;;;18.10;77.31
76766;BME280;65707;52.362;6.588;2023-08-21T02:08:55;102319.59;;;18.10;77.45
76766;BME280;65707;52.362;6.588;2023-08-21T02:11:22;102316.47;;;17.98;78.03
76766;BME280;65707;52.362;6.588;2023-08-21T02:13:48;102318.88;;;17.93;78.31
76766;BME280;65707;52.362;6.588;2023-08-21T02:16:16;102321.53;;;18.01;78.21
76766;BME280;65707;52.362;6.588;2023-08-21T02:18:43;102317.06;;;18.08;78.00
76766;BME280;65707;52.362;6.588;2023-08-21T02:21:09;102325.56;;;18.05;78.72
76766;BME280;65707;52.362;6.588;2023-08-21T02:23:36;102325.50;;;17.91;79.07
76766;BME280;65707;52.362;6.588;2023-08-21T02:26:03;102326.25;;;18.07;78.89
76766;BME280;65707;52.362;6.588;2023-08-21T02:28:29;102326.84;;;18.17;78.39
76766;BME280;65707;52.362;6.588;2023-08-21T02:30:56;102324.75;;;18.05;78.68
76766;BME280;65707;52.362;6.588;2023-08-21T02:33:24;102325.06;;;18.02;78.87
76766;BME280;65707;52.362;6.588;2023-08-21T02:35:50;102322.91;;;17.97;79.00
76766;BME280;65707;52.362;6.588;2023-08-21T02:38:17;102326.13;;;18.01;79.42
76766;BME280;65707;52.362;6.588;2023-08-21T02:40:44;102324.06;;;18.03;79.38
76766;BME280;65707;52.362;6.588;2023-08-21T02:43:10;102324.41;;;18.22;78.33
76766;BME280;65707;52.362;6.588;2023-08-21T02:45:37;102325.06;;;18.24;78.32
76766;BME280;65707;52.362;6.588;2023-08-21T02:48:04;102314.22;;;18.24;77.98
76766;BME280;65707;52.362;6.588;2023-08-21T02:50:32;102323.09;;;18.18;78.48
76766;BME280;65707;52.362;6.588;2023-08-21T02:52:58;102322.72;;;18.21;77.83
76766;BME280;65707;52.362;6.588;2023-08-21T02:55:25;102325.63;;;18.20;77.72
76766;BME280;65707;52.362;6.588;2023-08-21T02:57:52;102326.91;;;18.09;78.24
76766;BME280;65707;52.362;6.588;2023-08-21T03:00:18;102325.56;;;18.05;78.31
76766;BME280;65707;52.362;6.588;2023-08-21T03:02:45;102324.38;;;18.08;78.31
76766;BME280;65707;52.362;6.588;2023-08-21T03:05:12;102334.44;;;17.99;78.92
76766;BME280;65707;52.362;6.588;2023-08-21T03:07:40;102328.78;;;18.09;78.45
76766;BME280;65707;52.362;6.588;2023-08-21T03:10:08;102331.19;;;18.04;78.80
76766;BME280;65707;52.362;6.588;2023-08-21T03:12:35;102338.41;;;18.11;78.49
76766;BME280;65707;52.362;6.588;2023-08-21T03:15:02;102329.13;;;18.06;78.52
76766;BME280;65707;52.362;6.588;2023-08-21T03:17:29;102336.06;;;18.08;78.71
76766;BME280;65707;52.362;6.588;2023-08-21T03:19:55;102328.41;;;18.12;78.26
76766;BME280;65707;52.362;6.588;2023-08-21T03:22:22;102333.75;;;17.97;78.73
76766;BME280;65707;52.362;6.588;2023-08-21T03:24:50;102347.22;;;17.91;79.13
76766;BME280;65707;52.362;6.588;2023-08-21T03:27:16;102341.47;;;17.94;78.61
76766;BME280;65707;52.362;6.588;2023-08-21T03:29:43;102328.75;;;17.86;79.04
76766;BME280;65707;52.362;6.588;2023-08-21T03:32:13;102343.00;;;17.88;79.07
76766;BME280;65707;52.362;6.588;2023-08-21T03:34:40;102345.22;;;17.85;79.31
76766;BME280;65707;52.362;6.588;2023-08-21T03:37:06;102341.88;;;17.83;79.67
76766;BME280;65707;52.362;6.588;2023-08-21T03:39:33;102335.25;;;17.77;79.70
76766;BME280;65707;52.362;6.588;2023-08-21T03:42:01;102329.84;;;17.77;80.06
76766;BME280;65707;52.362;6.588;2023-08-21T03:44:28;102334.31;;;17.70;80.40
76766;BME280;65707;52.362;6.588;2023-08-21T03:46:54;102331.78;;;17.69;80.32
76766;BME280;65707;52.362;6.588;2023-08-21T03:49:21;102321.34;;;17.50;81.46
76766;BME280;65707;52.362;6.588;2023-08-21T03:51:47;102325.75;;;17.43;82.13
76766;BME280;65707;52.362;6.588;2023-08-21T03:54:14;102322.88;;;17.44;81.87
76766;BME280;65707;52.362;6.588;2023-08-21T03:56:40;102318.81;;;17.48;81.67
76766;BME280;65707;52.362;6.588;2023-08-21T03:59:08;102318.13;;;17.46;81.45
76766;BME280;65707;52.362;6.588;2023-08-21T04:01:35;102324.41;;;17.39;82.00
76766;BME280;65707;52.362;6.588;2023-08-21T04:04:01;102320.16;;;17.36;81.95
76766;BME280;65707;52.362;6.588;2023-08-21T04:06:28;102315.59;;;17.37;81.65
76766;BME280;65707;52.362;6.588;2023-08-21T04:08:54;102317.00;;;17.33;81.74
76766;BME280;65707;52.362;6.588;2023-08-21T04:11:21;102317.50;;;17.28;81.87
76766;BME280;65707;52.362;6.588;2023-08-21T04:13:47;102318.19;;;17.22;82.22
76766;BME280;65707;52.362;6.588;2023-08-21T04:16:15;102324.31;;;17.24;82.64
76766;BME280;65707;52.362;6.588;2023-08-21T04:18:43;102327.72;;;17.18;82.96
76766;BME280;65707;52.362;6.588;2023-08-21T04:21:09;102333.34;;;17.17;82.99
76766;BME280;65707;52.362;6.588;2023-08-21T04:23:36;102324.53;;;17.07;82.94
76766;BME280;65707;52.362;6.588;2023-08-21T04:26:03;102336.75;;;17.11;82.49
76766;BME280;65707;52.362;6.588;2023-08-21T04:28:30;102338.97;;;17.07;82.25
76766;BME280;65707;52.362;6.588;2023-08-21T04:30:57;102337.13;;;16.99;82.52
76766;BME280;65707;52.362;6.588;2023-08-21T04:33:25;102338.63;;;17.02;82.30
76766;BME280;65707;52.362;6.588;2023-08-21T04:35:52;102327.63;;;16.95;82.44
76766;BME280;65707;52.362;6.588;2023-08-21T04:38:18;102343.38;;;16.92;82.91
76766;BME280;65707;52.362;6.588;2023-08-21T04:40:45;102339.50;;;16.94;83.08
76766;BME280;65707;52.362;6.588;2023-08-21T04:43:11;102338.81;;;16.92;82.96
76766;BME280;65707;52.362;6.588;2023-08-21T04:45:38;102335.94;;;16.94;82.85
76766;BME280;65707;52.362;6.588;2023-08-21T04:48:05;102344.59;;;16.89;83.16
76766;BME280;65707;52.362;6.588;2023-08-21T04:50:33;102340.03;;;16.82;84.03
76766;BME280;65707;52.362;6.588;2023-08-21T04:52:59;102327.00;;;16.85;83.74
76766;BME280;65707;52.362;6.588;2023-08-21T04:55:26;102346.28;;;16.90;83.64
76766;BME280;65707;52.362;6.588;2023-08-21T04:57:52;102345.09;;;16.93;83.98
76766;BME280;65707;52.362;6.588;2023-08-21T05:00:19;102341.34;;;17.02;83.75
76766;BME280;65707;52.362;6.588;2023-08-21T05:02:46;102351.66;;;17.07;83.83
76766;BME280;65707;52.362;6.588;2023-08-21T05:05:12;102354.56;;;17.05;84.35
76766;BME280;65707;52.362;6.588;2023-08-21T05:07:40;102359.94;;;17.13;84.43
76766;BME280;65707;52.362;6.588;2023-08-21T05:10:08;102359.91;;;17.29;83.56
76766;BME280;65707;52.362;6.588;2023-08-21T05:12:35;102362.44;;;17.31;83.57
76766;BME280;65707;52.362;6.588;2023-08-21T05:15:02;102361.91;;;17.35;83.89
76766;BME280;65707;52.362;6.588;2023-08-21T05:17:28;102354.28;;;17.47;83.57
76766;BME280;65707;52.362;6.588;2023-08-21T05:19:56;102359.13;;;17.59;83.36
76766;BME280;65707;52.362;6.588;2023-08-21T05:22:22;102367.88;;;17.69;82.87
76766;BME280;65707;52.362;6.588;2023-08-21T05:24:50;102364.78;;;17.80;82.52
76766;BME280;65707;52.362;6.588;2023-08-21T05:27:17;102350.84;;;17.83;82.33
76766;BME280;65707;52.362;6.588;2023-08-21T05:29:43;102369.09;;;17.97;82.07
76766;BME280;65707;52.362;6.588;2023-08-21T05:32:10;102368.22;;;18.05;81.39
76766;BME280;65707;52.362;6.588;2023-08-21T05:34:36;102366.25;;;18.13;81.55
76766;BME280;65707;52.362;6.588;2023-08-21T05:37:03;102363.31;;;18.23;81.27
76766;BME280;65707;52.362;6.588;2023-08-21T05:39:30;102365.53;;;18.19;80.89
76766;BME280;65707;52.362;6.588;2023-08-21T05:41:58;102359.16;;;18.12;81.20
76766;BME280;65707;52.362;6.588;2023-08-21T05:44:25;102366.03;;;18.23;80.79
76766;BME280;65707;52.362;6.588;2023-08-21T05:46:51;102365.13;;;18.30;80.35
76766;BME280;65707;52.362;6.588;2023-08-21T05:49:18;102373.56;;;18.35;80.45
76766;BME280;65707;52.362;6.588;2023-08-21T05:51:44;102371.00;;;18.42;80.50
76766;BME280;65707;52.362;6.588;2023-08-21T05:54:11;102367.44;;;18.41;80.74
76766;BME280;65707;52.362;6.588;2023-08-21T05:56:37;102367.13;;;18.59;80.21
76766;BME280;65707;52.362;6.588;2023-08-21T05:59:05;102369.97;;;18.66;79.66
76766;BME280;65707;52.362;6.588;2023-08-21T06:01:32;102367.66;;;18.77;79.62
76766;BME280;65707;52.362;6.588;2023-08-21T06:03:58;102369.34;;;18.93;78.92
76766;BME280;65707;52.362;6.588;2023-08-21T06:06:25;102366.72;;;19.14;78.00
76766;BME280;65707;52.362;6.588;2023-08-21T06:08:51;102370.69;;;19.26;77.76
76766;BME280;65707;52.362;6.588;2023-08-21T06:11:18;102365.81;;;19.36;77.59
76766;BME280;65707;52.362;6.588;2023-08-21T06:13:45;102370.03;;;19.53;77.42
76766;BME280;65707;52.362;6.588;2023-08-21T06:16:12;102371.75;;;19.54;77.33
76766;BME280;65707;52.362;6.588;2023-08-21T06:18:39;102374.88;;;19.72;76.95
76766;BME280;65707;52.362;6.588;2023-08-21T06:21:06;102372.16;;;19.86;75.92
76766;BME280;65707;52.362;6.588;2023-08-21T06:23:32;102364.94;;;20.00;75.60
76766;BME280;65707;52.362;6.588;2023-08-21T06:25:59;102365.06;;;19.92;75.34
76766;BME280;65707;52.362;6.588;2023-08-21T06:28:25;102366.31;;;19.89;75.89
76766;BME280;65707;52.362;6.588;2023-08-21T06:30:56;102371.25;;;20.00;75.70
76766;BME280;65707;52.362;6.588;2023-08-21T06:33:24;102375.66;;;20.01;75.91
76766;BME280;65707;52.362;6.588;2023-08-21T06:35:51;102374.72;;;20.09;75.53
76766;BME280;65707;52.362;6.588;2023-08-21T06:38:17;102380.97;;;19.88;75.94
76766;BME280;65707;52.362;6.588;2023-08-21T06:40:44;102375.16;;;20.13;75.18
76766;BME280;65707;52.362;6.588;2023-08-21T06:43:11;102383.72;;;20.10;75.53
76766;BME280;65707;52.362;6.588;2023-08-21T06:45:38;102380.03;;;20.17;75.26
76766;BME280;65707;52.362;6.588;2023-08-21T06:48:05;102382.47;;;20.27;74.81
76766;BME280;65707;52.362;6.588;2023-08-21T06:50:33;102381.13;;;20.37;74.39
76766;BME280;65707;52.362;6.588;2023-08-21T06:52:59;102374.88;;;20.43;74.13
76766;BME280;65707;52.362;6.588;2023-08-21T06:55:26;102381.47;;;20.55;73.75
76766;BME280;65707;52.362;6.588;2023-08-21T06:57:52;102378.34;;;20.58;73.44
76766;BME280;65707;52.362;6.588;2023-08-21T07:00:19;102376.34;;;20.67;72.63
76766;BME280;65707;52.362;6.588;2023-08-21T07:02:45;102358.84;;;20.82;71.22
76766;BME280;65707;52.362;6.588;2023-08-21T07:05:12;102365.56;;;20.86;70.55
76766;BME280;65707;52.362;6.588;2023-08-21T07:07:40;102355.66;;;21.00;69.07
76766;BME280;65707;52.362;6.588;2023-08-21T07:10:07;102365.25;;;20.96;69.33
76766;BME280;65707;52.362;6.588;2023-08-21T07:12:34;102362.69;;;20.94;69.07
76766;BME280;65707;52.362;6.588;2023-08-21T07:15:01;102363.56;;;20.95;69.22
76766;BME280;65707;52.362;6.588;2023-08-21T07:17:28;102361.66;;;21.23;68.22
76766;BME280;65707;52.362;6.588;2023-08-21T07:19:54;102360.41;;;21.25;67.69
76766;BME280;65707;52.362;6.588;2023-08-21T07:22:21;102357.19;;;21.49;67.70
76766;BME280;65707;52.362;6.588;2023-08-21T07:24:49;102350.97;;;21.69;67.10
76766;BME280;65707;52.362;6.588;2023-08-21T07:27:16;102358.28;;;21.62;67.31
76766;BME280;65707;52.362;6.588;2023-08-21T07:29:42;102364.34;;;21.51;67.79
76766;BME280;65707;52.362;6.588;2023-08-21T07:32:09;102357.00;;;21.58;67.49
76766;BME280;65707;52.362;6.588;2023-08-21T07:34:35;102356.09;;;21.85;66.69
76766;BME280;65707;52.362;6.588;2023-08-21T07:37:02;102356.31;;;21.96;66.08
76766;BME280;65707;52.362;6.588;2023-08-21T07:39:29;102345.66;;;22.14;64.66
76766;BME280;65707;52.362;6.588;2023-08-21T07:41:57;102348.16;;;22.03;64.31
76766;BME280;65707;52.362;6.588;2023-08-21T07:44:23;102346.94;;;22.12;62.98
76766;BME280;65707;52.362;6.588;2023-08-21T07:46:50;102344.41;;;22.30;63.28
76766;BME280;65707;52.362;6.588;2023-08-21T07:49:16;102346.75;;;22.46;63.45
76766;BME280;65707;52.362;6.588;2023-08-21T07:51:43;102343.84;;;22.60;61.69
76766;BME280;65707;52.362;6.588;2023-08-21T07:54:09;102334.56;;;22.74;59.50
76766;BME280;65707;52.362;6.588;2023-08-21T07:56:37;102337.06;;;22.89;58.79
76766;BME280;65707;52.362;6.588;2023-08-21T07:59:07;102337.03;;;23.09;57.90
76766;BME280;65707;52.362;6.588;2023-08-21T08:01:34;102332.13;;;23.24;56.74
76766;BME280;65707;52.362;6.588;2023-08-21T08:04:00;102337.59;;;23.43;56.78
76766;BME280;65707;52.362;6.588;2023-08-21T08:06:27;102330.81;;;23.52;56.89
76766;BME280;65707;52.362;6.588;2023-08-21T08:08:54;102324.72;;;23.88;55.37
76766;BME280;65707;52.362;6.588;2023-08-21T08:11:20;102329.06;;;24.08;53.57
76766;BME280;65707;52.362;6.588;2023-08-21T08:13:47;102323.34;;;24.41;53.03
76766;BME280;65707;52.362;6.588;2023-08-21T08:16:15;102320.97;;;24.94;51.07
76766;BME280;65707;52.362;6.588;2023-08-21T08:18:41;102307.47;;;25.28;49.80
76766;BME280;65707;52.362;6.588;2023-08-21T08:21:08;102305.28;;;25.19;47.97
76766;BME280;65707;52.362;6.588;2023-08-21T08:23:36;102315.31;;;25.49;48.71
76766;BME280;65707;52.362;6.588;2023-08-21T08:26:02;102307.41;;;25.53;49.12
76766;BME280;65707;52.362;6.588;2023-08-21T08:28:29;102310.16;;;25.53;49.46
76766;BME280;65707;52.362;6.588;2023-08-21T08:30:55;102293.03;;;25.69;48.13
76766;BME280;65707;52.362;6.588;2023-08-21T08:33:24;102303.38;;;25.55;48.50
76766;BME280;65707;52.362;6.588;2023-08-21T08:35:50;102298.22;;;26.07;46.86
76766;BME280;65707;52.362;6.588;2023-08-21T08:38:17;102282.44;;;26.25;46.09
76766;BME280;65707;52.362;6.588;2023-08-21T08:40:45;102289.56;;;26.56;44.90
76766;BME280;65707;52.362;6.588;2023-08-21T08:43:13;102283.91;;;27.20;43.28
76766;BME280;65707;52.362;6.588;2023-08-21T08:45:41;102283.03;;;27.43;41.94
76766;BME280;65707;52.362;6.588;2023-08-21T08:48:07;102290.59;;;27.75;41.33
76766;BME280;65707;52.362;6.588;2023-08-21T08:50:37;102292.69;;;28.13;40.25
76766;BME280;65707;52.362;6.588;2023-08-21T08:53:06;102284.50;;;28.18;40.00
76766;BME280;65707;52.362;6.588;2023-08-21T08:55:33;102282.69;;;28.73;38.63
76766;BME280;65707;52.362;6.588;2023-08-21T08:57:59;102278.13;;;28.84;39.25
76766;BME280;65707;52.362;6.588;2023-08-21T09:00:26;102269.38;;;29.08;38.32
76766;BME280;65707;52.362;6.588;2023-08-21T09:02:54;102277.31;;;29.21;38.54
76766;BME280;65707;52.362;6.588;2023-08-21T09:05:21;102279.41;;;29.57;37.33
76766;BME280;65707;52.362;6.588;2023-08-21T09:08:02;102268.34;;;29.57;35.76
76766;BME280;65707;52.362;6.588;2023-08-21T09:10:28;102281.78;;;29.49;36.71
76766;BME280;65707;52.362;6.588;2023-08-21T09:12:55;102298.88;;;29.03;38.07
76766;BME280;65707;52.362;6.588;2023-08-21T09:15:28;102289.47;;;29.20;37.17
76766;BME280;65707;52.362;6.588;2023-08-21T09:17:55;102294.22;;;29.25;36.75
76766;BME280;65707;52.362;6.588;2023-08-21T09:20:22;102295.41;;;29.55;37.55
76766;BME280;65707;52.362;6.588;2023-08-21T09:22:53;102286.34;;;29.81;35.79
76766;BME280;65707;52.362;6.588;2023-08-21T09:25:23;102283.25;;;30.04;35.27
76766;BME280;65707;52.362;6.588;2023-08-21T09:27:52;102282.47;;;30.09;35.20
76766;BME280;65707;52.362;6.588;2023-08-21T09:30:19;102280.84;;;30.13;34.21
76766;BME280;65707;52.362;6.588;2023-08-21T09:32:52;102284.19;;;30.15;35.56
76766;BME280;65707;52.362;6.588;2023-08-21T09:35:20;102286.56;;;30.01;34.63
76766;BME280;65707;52.362;6.588;2023-08-21T09:37:47;102294.13;;;29.84;35.74
76766;BME280;65707;52.362;6.588;2023-08-21T09:40:14;102292.94;;;29.32;37.25
76766;BME280;65707;52.362;6.588;2023-08-21T09:42:42;102292.09;;;29.75;37.15
76766;BME280;65707;52.362;6.588;2023-08-21T09:45:09;102287.91;;;29.72;37.67
76766;BME280;65707;52.362;6.588;2023-08-21T09:47:36;102289.38;;;30.06;36.87
76766;BME280;65707;52.362;6.588;2023-08-21T09:50:04;102283.03;;;30.38;35.91
76766;BME280;65707;52.362;6.588;2023-08-21T09:52:31;102284.25;;;30.52;35.64
76766;BME280;65707;52.362;6.588;2023-08-21T09:54:59;102284.34;;;30.30;36.18
76766;BME280;65707;52.362;6.588;2023-08-21T09:57:28;102282.31;;;30.52;35.19
76766;BME280;65707;52.362;6.588;2023-08-21T09:59:57;102272.38;;;30.98;33.66
76766;BME280;65707;52.362;6.588;2023-08-21T10:02:26;102275.41;;;31.58;34.28
76766;BME280;65707;52.362;6.588;2023-08-21T10:04:54;102271.66;;;32.19;31.79
76766;BME280;65707;52.362;6.588;2023-08-21T10:07:21;102267.81;;;32.40;31.79
76766;BME280;65707;52.362;6.588;2023-08-21T10:09:51;102267.72;;;32.80;30.64
76766;BME280;65707;52.362;6.588;2023-08-21T10:12:18;102261.38;;;33.59;29.87
76766;BME280;65707;52.362;6.588;2023-08-21T10:14:47;102250.38;;;33.77;28.80
76766;BME280;65707;52.362;6.588;2023-08-21T10:17:15;102256.81;;;34.11;28.10
76766;BME280;65707;52.362;6.588;2023-08-21T10:19:42;102259.72;;;34.30;27.55
76766;BME280;65707;52.362;6.588;2023-08-21T10:22:36;102256.47;;;34.52;27.53
76766;BME280;65707;52.362;6.588;2023-08-21T10:25:04;102249.63;;;34.96;27.68
76766;BME280;65707;52.362;6.588;2023-08-21T10:27:40;102253.59;;;34.90;27.58
76766;BME280;65707;52.362;6.588;2023-08-21T10:30:12;102247.88;;;35.00;27.45
76766;BME280;65707;52.362;6.588;2023-08-21T10:32:45;102245.88;;;35.06;26.86
76766;BME280;65707;52.362;6.588;2023-08-21T10:35:14;102248.16;;;35.22;27.19
76766;BME280;65707;52.362;6.588;2023-08-21T10:40:43;102240.84;;;35.26;26.39
76766;BME280;65707;52.362;6.588;2023-08-21T10:43:39;102231.78;;;35.76;25.32
76766;BME280;65707;52.362;6.588;2023-08-21T10:46:06;102228.94;;;36.14;24.99
76766;BME280;65707;52.362;6.588;2023-08-21T10:48:32;102234.88;;;35.94;25.98
76766;BME280;65707;52.362;6.588;2023-08-21T10:51:01;102236.59;;;35.71;26.04
76766;BME280;65707;52.362;6.588;2023-08-21T10:53:29;102237.34;;;36.32;24.87
76766;BME280;65707;52.362;6.588;2023-08-21T10:55:56;102234.47;;;36.51;24.96
76766;BME280;65707;52.362;6.588;2023-08-21T10:58:23;102236.00;;;35.55;25.51
76766;BME280;65707;52.362;6.588;2023-08-21T11:00:57;102226.38;;;35.85;24.17
76766;BME280;65707;52.362;6.588;2023-08-21T11:03:24;102243.81;;;35.11;25.27
76766;BME280;65707;52.362;6.588;2023-08-21T11:06:01;102236.84;;;36.25;25.11
76766;BME280;65707;52.362;6.588;2023-08-21T11:08:28;102240.53;;;36.85;24.13
76766;BME280;65707;52.362;6.588;2023-08-21T11:10:54;102242.81;;;37.10;24.42
76766;BME280;65707;52.362;6.588;2023-08-21T11:13:23;102245.84;;;36.54;24.54
76766;BME280;65707;52.362;6.588;2023-08-21T11:15:58;102238.34;;;36.68;24.13
76766;BME280;65707;52.362;6.588;2023-08-21T11:18:32;102247.38;;;36.79;24.96
76766;BME280;65707;52.362;6.588;2023-08-21T11:21:07;102256.00;;;36.96;24.85
76766;BME280;65707;52.362;6.588;2023-08-21T11:23:35;102255.25;;;36.13;25.85
76766;BME280;65707;52.362;6.588;2023-08-21T11:26:02;102269.22;;;35.33;26.63
76766;BME280;65707;52.362;6.588;2023-08-21T11:28:30;102268.25;;;35.01;27.63
76766;BME280;65707;52.362;6.588;2023-08-21T11:30:59;102262.81;;;35.38;26.60
76766;BME280;65707;52.362;6.588;2023-08-21T11:33:26;102263.31;;;35.16;26.97
76766;BME280;65707;52.362;6.588;2023-08-21T11:35:53;102254.63;;;35.41;27.24
76766;BME280;65707;52.362;6.588;2023-08-21T11:38:21;102265.75;;;35.23;27.06
76766;BME280;65707;52.362;6.588;2023-08-21T11:40:52;102249.53;;;35.48;26.31
76766;BME280;65707;52.362;6.588;2023-08-21T11:43:18;102257.72;;;35.16;27.16
76766;BME280;65707;52.362;6.588;2023-08-21T11:45:45;102253.59;;;35.93;26.79
76766;BME280;65707;52.362;6.588;2023-08-21T11:48:14;102235.34;;;36.78;25.84
76766;BME280;65707;52.362;6.588;2023-08-21T11:50:40;102220.28;;;37.42;24.78
76766;BME280;65707;52.362;6.588;2023-08-21T11:53:07;102226.22;;;37.41;24.12
76766;BME280;65707;52.362;6.588;2023-08-21T11:55:36;102212.09;;;37.18;24.68
76766;BME280;65707;52.362;6.588;2023-08-21T11:58:03;102213.00;;;37.14;24.42
76766;BME280;65707;52.362;6.588;2023-08-21T12:00:30;102196.28;;;37.50;23.54
76766;BME280;65707;52.362;6.588;2023-08-21T12:02:58;102195.19;;;37.73;23.82
76766;BME280;65707;52.362;6.588;2023-08-21T12:05:26;102197.09;;;37.50;24.19
76766;BME280;65707;52.362;6.588;2023-08-21T12:07:53;102196.75;;;37.30;23.45
76766;BME280;65707;52.362;6.588;2023-08-21T12:10:24;102206.94;;;36.85;24.42
76766;BME280;65707;52.362;6.588;2023-08-21T12:12:51;102212.00;;;36.24;25.14
76766;BME280;65707;52.362;6.588;2023-08-21T12:15:17;102216.53;;;35.50;26.50
76766;BME280;65707;52.362;6.588;2023-08-21T12:17:44;102216.97;;;35.39;26.50
76766;BME280;65707;52.362;6.588;2023-08-21T12:20:11;102221.59;;;35.48;26.90
76766;BME280;65707;52.362;6.588;2023-08-21T12:22:39;102220.38;;;35.92;25.82
76766;BME280;65707;52.362;6.588;2023-08-21T12:25:07;102222.28;;;35.96;25.91
76766;BME280;65707;52.362;6.588;2023-08-21T12:27:34;102210.03;;;35.92;25.74
76766;BME280;65707;52.362;6.588;2023-08-21T12:30:00;102207.84;;;36.21;25.26
76766;BME280;65707;52.362;6.588;2023-08-21T12:32:27;102206.69;;;35.71;25.74
76766;BME280;65707;52.362;6.588;2023-08-21T12:34:53;102198.91;;;35.31;26.06
76766;BME280;65707;52.362;6.588;2023-08-21T12:37:20;102206.44;;;35.12;26.52
76766;BME280;65707;52.362;6.588;2023-08-21T12:39:48;102208.84;;;34.48;26.95
76766;BME280;65707;52.362;6.588;2023-08-21T12:42:14;102203.72;;;34.55;26.83
76766;BME280;65707;52.362;6.588;2023-08-21T12:44:41;102208.78;;;35.00;26.61
76766;BME280;65707;52.362;6.588;2023-08-21T12:47:07;102203.44;;;36.02;25.72
76766;BME280;65707;52.362;6.588;2023-08-21T12:49:34;102196.94;;;36.20;24.90
76766;BME280;65707;52.362;6.588;2023-08-21T12:52:01;102193.91;;;36.48;23.78
76766;BME280;65707;52.362;6.588;2023-08-21T12:54:27;102204.19;;;36.39;24.78